Plank, Pennsylvania
Current Conditions -  °F | °C
As of 1:35 AM on Saturday 20 Dec 2014 (Local Time) from KN38 Reporting Station
Overcast Overcast  
Wind Chill: 17°   Ceiling: 1300
Heat Index: 25°   Visibility: 10mi
Dew Point: 19°   Wind: 7mph
Humidity: 80%   Direction: 360°N
Pressure: 30.14"   Gusts: 15mph
Location:  41.533°N, 77.3132°W
Report Text: KN38 200635Z AUTO 36006G13KT 10SM OVC013 M04/M07 A3014 RMK AO2
Loading
Personal Weather Stations






























Interactive Weather Map New forecast layout! Learn more

10-Day Weather Forecast

Advertisements
Track Severe Weather on mobile